Time;durP1;ratioP1;P1;durP2;ratioP2;P2;SDS_P1;SDS_P2;PMS_P1;PMS_P2;Temp;Humidity;BMP_temperature;BMP_pressure;BME280_temperature;BME280_humidity;BME280_pressure;Samples;Min_cycle;Max_cycle;Signal;HPM_P1;HPM_P2
2022/12/23 00:01:07;;;;;;;;;;;;;;;1.60;100.00;99170.95;1720759;82;21078;-71
2022/12/23 00:03:34;;;;;;;58.23;35.92;;;;;;;1.60;100.00;99165.58;1719670;82;20134;-72
2022/12/23 00:06:00;;;;;;;57.13;34.48;;;;;;;1.59;100.00;99165.30;1715561;82;21062;-71
2022/12/23 00:08:27;;;;;;;51.80;32.85;;;;;;;1.64;100.00;99158.72;1719288;82;21098;-71
2022/12/23 00:10:55;;;;;;;50.88;33.00;;;;;;;1.64;100.00;99154.69;1730093;82;20992;-71
2022/12/23 00:16:09;;;;;;;61.50;34.98;;;;;;;1.57;100.00;99160.67;1722376;82;21025;-71
2022/12/23 00:18:35;;;;;;;51.20;33.05;;;;;;;1.61;100.00;99154.63;1725060;82;21593;-71
2022/12/23 00:21:05;;;;;;;52.58;32.48;;;;;;;1.69;100.00;99149.47;1722266;82;20992;-71
2022/12/23 00:23:34;;;;;;;55.20;32.28;;;;;;;1.75;100.00;99139.98;1740900;82;21153;-71
2022/12/23 00:26:00;;;;;;;54.83;32.70;;;;;;;1.75;100.00;99137.30;1711566;83;21013;-71
2022/12/23 00:28:27;;;;;;;57.53;33.53;;;;;;;1.73;100.00;99132.70;1710179;82;21075;-71
2022/12/23 00:31:03;;;;;;;49.90;31.12;;;;;;;1.71;100.00;99135.29;1723620;82;21019;-71
2022/12/23 00:33:37;;;;;;;49.15;29.87;;;;;;;1.71;100.00;99129.41;1725122;82;21637;-71
2022/12/23 00:36:19;;;;;;;46.65;30.10;;;;;;;1.69;100.00;99124.80;1766331;81;21062;-71
2022/12/23 00:44:15;;;;;;;46.33;29.95;;;;;;;1.61;100.00;99123.78;1726454;82;21030;-71
2022/12/23 00:46:42;;;;;;;;;;;;;;;1.56;100.00;99122.30;1745711;82;21142;-72
2022/12/23 00:51:57;;;;;;;44.75;27.07;;;;;;;1.62;100.00;99117.89;1739989;82;21075;-71
2022/12/23 00:54:23;;;;;;;;;;;;;;;1.68;100.00;99115.63;1734210;82;21466;-71
2022/12/23 00:56:50;;;;;;;43.68;27.40;;;;;;;1.71;100.00;99116.51;1742254;82;20138;-71
2022/12/23 00:59:17;;;;;;;45.40;28.50;;;;;;;1.59;100.00;99109.79;1724512;82;21007;-71
2022/12/23 01:07:13;;;;;;;46.70;27.40;;;;;;;1.59;100.00;99100.92;1685107;84;21079;-71
2022/12/23 01:09:39;;;;;;;40.98;27.25;;;;;;;1.61;100.00;99106.34;1676212;84;21063;-72
2022/12/23 01:12:07;;;;;;;43.25;27.95;;;;;;;1.62;100.00;99108.51;1673600;83;21457;-70
2022/12/23 01:14:33;;;;;;;44.98;28.67;;;;;;;1.61;100.00;99108.20;1690156;84;21015;-71
2022/12/23 01:17:00;;;;;;;50.90;27.67;;;;;;;1.61;100.00;99116.25;1691087;84;21062;-71
2022/12/23 01:19:27;;;;;;;43.38;27.17;;;;;;;1.64;100.00;99117.95;1700284;84;21122;-71
2022/12/23 01:21:55;;;;;;;43.40;26.33;;;;;;;1.70;100.00;99110.88;1697771;84;21062;-72
2022/12/23 01:24:21;;;;;;;42.13;27.20;;;;;;;1.74;100.00;99107.48;1692165;84;21057;-71
2022/12/23 01:26:48;;;;;;;40.60;27.00;;;;;;;1.74;100.00;99102.11;1664174;85;21084;-71
2022/12/23 01:29:14;;;;;;;41.13;27.30;;;;;;;1.67;100.00;99098.70;1671724;85;21651;-71
2022/12/23 01:31:40;;;;;;;44.90;27.07;;;;;;;1.64;100.00;99097.83;1656472;85;21034;-71
2022/12/23 01:34:07;;;;;;;42.70;27.50;;;;;;;1.64;100.00;99103.20;1666940;85;22192;-71
2022/12/23 01:36:33;;;;;;;40.45;25.10;;;;;;;1.68;100.00;99100.88;1665114;85;21081;-70
2022/12/23 01:39:00;;;;;;;41.23;26.90;;;;;;;1.71;100.00;99107.12;1684207;85;21085;-71
2022/12/23 01:45:00;;;;;;;42.53;26.25;;;;;;;1.64;100.00;99097.83;1667389;85;21084;-71
2022/12/23 01:48:11;;;;;;;36.58;24.90;;;;;;;1.59;100.00;99091.01;1678179;84;21090;-71
2022/12/23 01:50:47;;;;;;;39.00;24.92;;;;;;;1.61;100.00;99100.16;1646038;86;21116;-72
2022/12/23 01:53:25;;;;;;;38.80;24.75;;;;;;;1.66;100.00;99089.05;1668454;84;21592;-72
2022/12/23 01:56:11;;;;;;;41.50;27.27;;;;;;;1.67;100.00;99096.55;1681948;84;21040;-72
2022/12/23 01:58:47;;;;;;;41.28;26.55;;;;;;;1.61;100.00;99094.79;1681876;84;21094;-71
2022/12/23 02:04:06;;;;;;;39.90;26.80;;;;;;;1.60;100.00;99095.31;1675252;84;21070;-71
2022/12/23 02:09:29;;;;;;;38.67;25.12;;;;;;;1.75;100.00;99086.31;1686157;84;21098;-72
2022/12/23 02:12:22;;;;;;;38.60;25.27;;;;;;;1.71;100.00;99078.42;1688422;84;21605;-71
2022/12/23 02:18:32;;;;;;;40.05;26.05;;;;;;;1.50;100.00;99067.70;1692475;84;21201;-71
2022/12/23 02:21:19;;;;;;;34.80;23.42;;;;;;;1.46;100.00;99076.43;1689755;84;21046;-71
2022/12/23 02:24:15;;;;;;;37.40;25.43;;;;;;;1.45;100.00;99076.95;1699064;84;21793;-71
2022/12/23 02:27:11;;;;;;;35.23;23.57;;;;;;;1.46;100.00;99067.05;1658350;86;21655;-71
2022/12/23 02:30:07;;;;;;;33.10;22.60;;;;;;;1.40;100.00;99059.41;1690622;84;21014;-71
2022/12/23 02:33:13;;;;;;;37.05;24.55;;;;;;;1.32;100.00;99058.38;1690156;84;21631;-71
2022/12/23 02:35:47;;;;;;;37.42;24.05;;;;;;;1.32;100.00;99069.11;1685252;84;21007;-71
2022/12/23 02:38:28;;;;;;;34.78;23.80;;;;;;;1.36;100.00;99057.40;1656888;85;21603;-71
2022/12/23 02:41:19;;;;;;;35.80;24.67;;;;;;;1.39;100.00;99069.00;1694634;84;21114;-71
2022/12/23 02:43:56;;;;;;;35.63;24.00;;;;;;;1.38;100.00;99075.44;1679358;84;21066;-71
2022/12/23 02:46:31;;;;;;;36.75;25.23;;;;;;;1.38;100.00;99070.87;1682845;84;21015;-71
2022/12/23 02:49:05;;;;;;;33.85;22.15;;;;;;;1.42;100.00;99062.66;1669575;85;21121;-71
2022/12/23 02:51:35;;;;;;;35.15;22.60;;;;;;;1.46;100.00;99059.00;1661811;85;21126;-71
2022/12/23 02:54:05;;;;;;;35.13;23.55;;;;;;;1.49;100.00;99058.53;1697979;84;21048;-71
2022/12/23 02:56:32;;;;;;;33.45;23.22;;;;;;;1.48;100.00;99061.77;1676638;85;21135;-72
2022/12/23 02:59:13;;;;;;;36.40;24.52;;;;;;;1.43;100.00;99057.60;1678067;84;21038;-70
2022/12/23 03:01:39;;;;;;;39.30;25.15;;;;;;;1.41;100.00;99057.03;1693679;84;21134;-70
2022/12/23 03:04:06;;;;;;;33.70;23.62;;;;;;;1.44;100.00;99057.08;1664407;86;21007;-71
2022/12/23 03:06:38;;;;;;;34.98;23.30;;;;;;;1.48;100.00;99058.27;1687056;84;21031;-71
2022/12/23 03:09:04;;;;;;;35.45;23.62;;;;;;;1.52;100.00;99063.98;1712385;84;21536;-71
2022/12/23 03:11:51;;;;;;;38.10;24.60;;;;;;;1.46;100.00;99063.02;1700223;84;21157;-71
2022/12/23 03:14:26;;;;;;;38.50;24.75;;;;;;;1.41;100.00;99069.61;1674512;84;21588;-71
2022/12/23 03:17:01;;;;;;;40.20;24.98;;;;;;;1.37;100.00;99073.27;1692159;84;21138;-71
2022/12/23 03:19:51;;;;;;;37.93;24.65;;;;;;;1.38;100.00;99072.20;1696132;84;21106;-71
2022/12/23 03:22:37;;;;;;;36.83;23.83;;;;;;;1.41;100.00;99070.44;1685339;84;21103;-71
2022/12/23 03:25:27;;;;;;;35.60;23.55;;;;;;;1.45;100.00;99070.25;1688213;84;21028;-71
2022/12/23 03:28:16;;;;;;;37.78;24.23;;;;;;;1.46;100.00;99075.91;1693328;84;22233;-71
2022/12/23 03:30:47;;;;;;;37.93;24.85;;;;;;;1.41;100.00;99073.12;1701375;83;21026;-71
2022/12/23 03:33:23;;;;;;;35.68;24.70;;;;;;;1.34;100.00;99072.39;1649300;85;21051;-71
2022/12/23 03:35:54;;;;;;;37.75;24.75;;;;;;;1.34;100.00;99071.58;1683491;85;21090;-70
2022/12/23 03:38:20;;;;;;;36.98;24.07;;;;;;;1.35;100.00;99059.78;1660775;84;21091;-71
2022/12/23 03:40:51;;;;;;;35.60;24.37;;;;;;;1.34;100.00;99063.02;1690243;84;21027;-70
2022/12/23 03:43:25;;;;;;;37.65;24.87;;;;;;;1.33;100.00;99061.37;1687839;85;21646;-70
2022/12/23 03:46:01;;;;;;;40.15;24.63;;;;;;;1.27;100.00;99056.92;1724356;82;21070;-70
2022/12/23 03:48:39;;;;;;;40.10;25.40;;;;;;;1.20;100.00;99065.59;1717626;82;21656;-70
2022/12/23 03:51:10;;;;;;;38.55;25.72;;;;;;;1.19;100.00;99052.39;1733611;82;21003;-71
2022/12/23 03:53:43;;;;;;;36.05;24.45;;;;;;;1.22;100.00;99046.57;1743012;82;21050;-70
2022/12/23 03:56:15;;;;;;;40.45;26.60;;;;;;;1.20;100.00;99049.50;1704081;83;21007;-70
2022/12/23 03:58:53;;;;;;;39.55;25.65;;;;;;;1.17;100.00;99039.75;1732641;82;21035;-70
2022/12/23 04:01:44;;;;;;;38.98;25.68;;;;;;;1.10;100.00;99035.01;1719164;82;21046;-70
2022/12/23 04:04:35;;;;;;;41.63;26.62;;;;;;;1.05;100.00;99051.77;1727325;82;21443;-71
2022/12/23 04:07:12;;;;;;;39.65;26.55;;;;;;;1.09;100.00;99054.80;1703317;83;21129;-70
2022/12/23 04:09:39;;;;;;;40.88;27.25;;;;;;;1.16;100.00;99063.58;1678192;84;21419;-71
2022/12/23 04:12:06;;;;;;;40.80;26.55;;;;;;;1.24;100.00;99073.99;1678838;84;21178;-71
2022/12/23 04:14:33;;;;;;;40.52;27.32;;;;;;;1.25;100.00;99068.38;1644674;86;21608;-71
2022/12/23 04:17:00;;;;;;;42.73;27.02;;;;;;;1.24;100.00;99078.02;1682985;84;21075;-71
2022/12/23 04:19:27;;;;;;;41.77;27.45;;;;;;;1.27;100.00;99079.72;1665645;84;21134;-71
2022/12/23 04:21:54;;;;;;;36.75;24.23;;;;;;;1.35;100.00;99065.97;1687048;84;21102;-71
2022/12/23 04:24:21;;;;;;;42.03;26.95;;;;;;;1.40;100.00;99074.16;1686852;84;21027;-71
2022/12/23 04:26:47;;;;;;;;;;;;;;;1.42;100.00;99073.91;1689419;84;21094;-71
2022/12/23 04:29:14;;;;;;;41.68;27.60;;;;;;;1.40;100.00;99067.97;1697511;84;20185;-71
2022/12/23 04:31:41;;;;;;;43.63;27.80;;;;;;;1.29;100.00;99081.63;1699446;84;21102;-71
2022/12/23 04:34:09;;;;;;;43.08;27.25;;;;;;;1.27;100.00;99087.77;1663603;84;21047;-71
2022/12/23 04:36:35;;;;;;;;;;;;;;;1.27;100.00;99081.58;1686013;84;21135;-71
2022/12/23 04:39:02;;;;;;;43.52;26.68;;;;;;;1.28;100.00;99096.08;1697766;84;20115;-71
2022/12/23 04:41:29;;;;;;;41.02;25.82;;;;;;;1.24;100.00;99078.02;1681256;84;21098;-70
2022/12/23 04:43:56;;;;;;;39.90;26.93;;;;;;;1.19;100.00;99081.37;1677324;84;21054;-70
2022/12/23 04:46:22;;;;;;;40.12;27.93;;;;;;;1.12;100.00;99065.89;1676593;84;21000;-70
2022/12/23 04:48:49;;;;;;;46.00;28.57;;;;;;;1.05;100.00;99068.36;1683009;84;21086;-70
2022/12/23 04:51:16;;;;;;;;;;;;;;;1.00;100.00;99073.05;1682613;84;21086;-70
2022/12/23 04:53:42;;;;;;;40.35;26.42;;;;;;;1.05;100.00;99077.75;1676374;84;20176;-70
2022/12/23 04:56:08;;;;;;;43.35;28.23;;;;;;;1.01;100.00;99081.40;1678604;84;21007;-70
2022/12/23 04:58:35;;;;;;;40.35;27.55;;;;;;;0.99;100.00;99080.82;1680520;84;21585;-71
2022/12/23 05:01:07;;;;;;;44.18;28.85;;;;;;;0.94;100.00;99074.78;1684349;84;21022;-70
2022/12/23 05:03:36;;;;;;;42.45;27.52;;;;;;;0.87;100.00;99062.00;1687123;84;21182;-71
2022/12/23 05:06:03;;;;;;;46.05;30.00;;;;;;;0.84;100.00;99064.31;1683923;84;21082;-71
2022/12/23 05:08:29;;;;;;;47.05;28.92;;;;;;;0.86;100.00;99045.61;1684464;84;21561;-70
2022/12/23 05:10:56;;;;;;;45.90;30.35;;;;;;;0.87;100.00;99040.56;1697259;84;21053;-70
2022/12/23 05:13:23;;;;;;;47.25;30.62;;;;;;;0.84;100.00;99034.31;1698143;84;21023;-71
2022/12/23 05:15:52;;;;;;;47.75;29.80;;;;;;;0.78;100.00;99041.10;1685757;84;21045;-71
2022/12/23 05:18:19;;;;;;;44.75;29.35;;;;;;;0.75;100.00;99036.99;1669784;85;21076;-71
2022/12/23 05:20:45;;;;;;;48.90;31.00;;;;;;;0.78;100.00;99039.22;1682049;84;21070;-71
2022/12/23 05:23:12;;;;;;;45.95;29.95;;;;;;;0.79;100.00;99036.84;1670799;84;21092;-70
2022/12/23 18:44:25;;;;;;;112.05;64.58;;;;;;;0.67;100.00;99103.47;1849093;75;22382;-66
2022/12/23 18:46:51;;;;;;;111.37;63.63;;;;;;;0.74;100.00;99107.71;1831533;77;21372;-66
2022/12/23 18:49:18;;;;;;;92.22;54.20;;;;;;;0.96;100.00;99112.06;1800047;78;21049;-66
2022/12/23 18:51:44;;;;;;;84.25;49.33;;;;;;;1.16;100.00;99110.49;1764627;79;21010;-66
2022/12/23 18:54:14;;;;;;;77.87;47.40;;;;;;;1.33;100.00;99118.20;1781957;80;20986;-65
2022/12/23 18:56:40;;;;;;;75.72;44.73;;;;;;;1.47;100.00;99111.09;1759340;80;20977;-65
2022/12/23 18:59:15;;;;;;;70.17;43.30;;;;;;;1.64;100.00;99116.61;1766667;80;21002;-66
2022/12/23 19:01:41;;;;;;;69.35;45.80;;;;;;;1.77;100.00;99118.30;1771096;79;21065;-66
2022/12/23 19:04:08;;;;;;;69.72;42.17;;;;;;;1.85;100.00;99110.71;1772664;79;21636;-67
2022/12/23 19:06:34;;;;;;;66.02;42.78;;;;;;;1.95;100.00;99106.93;1770862;79;21553;-66
2022/12/23 19:09:01;;;;;;;67.30;42.62;;;;;;;2.09;100.00;99108.08;1764862;79;20999;-67
2022/12/23 19:11:27;;;;;;;71.67;44.38;;;;;;;2.19;100.00;99105.11;1763058;79;21027;-66
2022/12/23 19:13:53;;;;;;;;;;;;;;;2.25;100.00;99097.45;1768127;79;21008;-67
2022/12/23 19:16:20;;;;;;;68.87;43.70;;;;;;;2.28;100.00;99102.36;1745268;79;20405;-67
2022/12/23 19:18:47;;;;;;;66.05;43.98;;;;;;;2.25;100.00;99099.31;1765815;79;21004;-68
2022/12/23 19:21:16;;;;;;;74.05;45.35;;;;;;;2.29;100.00;99097.28;1773079;79;21058;-68
2022/12/23 19:23:43;;;;;;;67.00;44.35;;;;;;;2.38;100.00;99099.08;1759281;79;21589;-67
2022/12/23 19:26:10;;;;;;;73.75;48.45;;;;;;;2.45;100.00;99103.28;1778180;80;21034;-68
2022/12/23 19:28:37;;;;;;;63.15;41.28;;;;;;;2.49;100.00;99099.08;1763038;81;21588;-68
2022/12/23 19:31:10;;;;;;;61.23;38.63;;;;;;;2.49;100.00;99096.39;1770640;79;21082;-67
2022/12/23 19:33:38;;;;;;;64.25;40.90;;;;;;;2.45;100.00;99101.11;1772507;79;20999;-68
2022/12/23 19:36:14;;;;;;;64.32;42.03;;;;;;;2.43;100.00;99103.23;1772061;79;21050;-67
2022/12/23 19:38:41;;;;;;;73.33;45.52;;;;;;;2.44;100.00;99099.50;1781737;79;21474;-67
2022/12/23 19:41:07;;;;;;;72.17;45.65;;;;;;;2.44;100.00;99101.63;1778226;79;21138;-67
2022/12/23 19:43:35;;;;;;;68.83;44.55;;;;;;;2.44;100.00;99104.32;1786289;80;21062;-67
2022/12/23 19:46:05;;;;;;;78.20;49.27;;;;;;;2.43;100.00;99100.55;1786439;80;21588;-67
2022/12/23 19:48:31;;;;;;;69.67;45.35;;;;;;;2.44;100.00;99101.63;1775354;80;21009;-67
2022/12/23 19:50:59;;;;;;;68.02;45.35;;;;;;;2.50;100.00;99101.24;1769158;79;21094;-67
2022/12/23 19:53:25;;;;;;;69.17;43.02;;;;;;;2.61;100.00;99099.59;1785227;79;21034;-67
2022/12/23 19:56:04;;;;;;;66.53;43.02;;;;;;;2.68;100.00;99100.28;1791373;78;20998;-67
2022/12/23 19:58:33;;;;;;;65.22;41.83;;;;;;;2.68;100.00;99092.22;1795661;78;20994;-67
2022/12/23 20:01:07;;;;;;;64.67;42.85;;;;;;;2.65;100.00;99094.86;1793420;79;21562;-67
2022/12/23 20:03:34;;;;;;;70.92;45.78;;;;;;;2.61;100.00;99095.56;1772265;79;21490;-67
2022/12/23 20:06:00;;;;;;;;;;;;;;;2.60;100.00;99099.30;1771115;81;21011;-67
2022/12/23 20:08:27;;;;;;;62.43;40.15;;;;;;;2.65;100.00;99096.20;1774453;80;20463;-67
2022/12/23 20:11:07;;;;;;;67.10;41.83;;;;;;;2.65;100.00;99094.05;1774509;79;21513;-67
2022/12/23 20:13:35;;;;;;;62.15;40.52;;;;;;;2.64;100.00;99091.06;1782688;80;21030;-67
2022/12/23 20:16:02;;;;;;;;;;;;;;;2.56;100.00;99096.78;1790700;79;21121;-66
2022/12/23 20:18:28;;;;;;;66.67;43.63;;;;;;;2.50;100.00;99098.03;1787274;79;20128;-67
2022/12/23 20:20:55;;;;;;;69.92;43.08;;;;;;;2.38;100.00;99094.52;1800529;79;21042;-67
2022/12/23 20:23:21;;;;;;;65.42;41.77;;;;;;;2.38;100.00;99085.13;1788348;79;20959;-67
2022/12/23 20:25:47;;;;;;;65.40;42.85;;;;;;;2.44;100.00;99076.66;1779085;79;21631;-67
2022/12/23 20:28:14;;;;;;;63.25;41.23;;;;;;;2.44;100.00;99076.66;1786221;79;20971;-67
2022/12/23 20:30:41;;;;;;;63.78;42.65;;;;;;;2.50;100.00;99084.59;1788195;79;21517;-67
2022/12/23 20:33:09;;;;;;;66.28;42.38;;;;;;;2.50;100.00;99080.56;1807773;78;21086;-68
2022/12/23 20:35:36;;;;;;;63.87;41.35;;;;;;;2.49;100.00;99078.11;1771950;79;21531;-65
2022/12/23 20:38:02;;;;;;;;;;;;;;;2.49;100.00;99074.89;1786335;79;21540;-66
2022/12/23 20:40:30;;;;;;;63.92;41.15;;;;;;;2.58;100.00;99069.98;1769396;79;20145;-66
2022/12/23 20:42:57;;;;;;;63.70;40.45;;;;;;;2.57;100.00;99070.22;1788527;80;21428;-66
2022/12/23 20:45:24;;;;;;;;;;;;;;;2.58;100.00;99067.83;1775775;80;21512;-66
2022/12/23 20:47:52;;;;;;;65.10;41.58;;;;;;;2.55;100.00;99065.61;1752311;81;20441;-66
2022/12/23 20:50:20;;;;;;;63.00;40.50;;;;;;;2.44;100.00;99070.74;1743651;81;21101;-65
2022/12/23 20:52:46;;;;;;;62.13;40.65;;;;;;;2.43;100.00;99059.73;1764065;80;20958;-66
2022/12/23 20:55:13;;;;;;;63.42;41.18;;;;;;;2.47;100.00;99064.92;1749001;81;21655;-66
2022/12/23 20:57:39;;;;;;;;;;;;;;;2.50;100.00;99056.39;1747495;82;21033;-66
2022/12/23 21:00:07;;;;;;;76.30;47.83;;;;;;;2.54;100.00;99053.23;1745805;81;20421;-66
2022/12/23 21:02:33;;;;;;;73.10;46.33;;;;;;;2.44;100.00;99058.66;1752667;81;21004;-65
2022/12/23 21:05:00;;;;;;;69.58;44.73;;;;;;;2.37;100.00;99059.30;1742790;82;21648;-66
2022/12/23 21:07:27;;;;;;;;;;;;;;;2.33;100.00;99073.46;1747684;82;21424;-66
2022/12/23 21:09:54;;;;;;;69.27;45.12;;;;;;;2.31;100.00;99066.97;1744056;81;20722;-66
2022/12/23 21:12:21;;;;;;;67.30;44.23;;;;;;;2.35;100.00;99071.34;1744964;81;21034;-66
2022/12/23 21:14:47;;;;;;;70.00;45.43;;;;;;;2.41;100.00;99072.56;1744765;82;21516;-66
2022/12/23 21:17:13;;;;;;;;;;;;;;;2.43;100.00;99074.50;1746039;81;21007;-66
2022/12/23 21:19:40;;;;;;;70.57;42.33;;;;;;;2.41;100.00;99075.25;1732485;81;20125;-66
2022/12/23 21:22:07;;;;;;;65.65;44.33;;;;;;;2.34;100.00;99071.05;1742336;81;21446;-66
2022/12/23 21:24:33;;;;;;;70.92;46.75;;;;;;;2.35;100.00;99068.13;1719577;82;21014;-66
2022/12/23 21:26:59;;;;;;;73.67;49.38;;;;;;;2.39;100.00;99072.52;1739295;82;21486;-66
2022/12/23 21:29:26;;;;;;;79.47;49.40;;;;;;;2.44;100.00;99071.30;1744246;81;21505;-66
2022/12/23 21:31:53;;;;;;;;;;;;;;;2.47;100.00;99077.53;1750418;80;21020;-66
2022/12/23 21:34:20;;;;;;;74.20;48.68;;;;;;;2.48;100.00;99073.77;1748111;80;20110;-66
2022/12/23 21:36:46;;;;;;;73.12;47.83;;;;;;;2.40;100.00;99067.44;1757032;81;21046;-66
2022/12/23 21:39:14;;;;;;;72.45;46.95;;;;;;;2.36;100.00;99065.75;1734772;82;20969;-65
2022/12/23 21:41:40;;;;;;;69.40;45.12;;;;;;;2.34;100.00;99068.36;1726654;81;21407;-66
2022/12/23 21:44:06;;;;;;;67.92;43.25;;;;;;;2.34;100.00;99062.46;1747491;80;21017;-65
2022/12/23 21:46:33;;;;;;;70.00;46.53;;;;;;;2.39;100.00;99063.94;1780393;79;21564;-66
2022/12/23 21:48:59;;;;;;;67.42;45.55;;;;;;;2.43;100.00;99067.79;1795155;79;21422;-66
2022/12/23 21:51:28;;;;;;;77.80;48.90;;;;;;;2.45;100.00;99061.64;1790698;79;20990;-66
2022/12/23 21:53:55;;;;;;;85.28;53.68;;;;;;;2.42;100.00;99058.08;1781540;79;21487;-66
2022/12/23 21:56:26;;;;;;;88.05;53.52;;;;;;;2.37;100.00;99063.33;1797072;79;21018;-66
2022/12/23 21:59:00;;;;;;;78.07;49.85;;;;;;;2.37;100.00;99060.64;1795757;79;20973;-66
2022/12/23 22:01:28;;;;;;;77.30;48.50;;;;;;;2.43;100.00;99062.94;1773728;79;21628;-66
2022/12/23 22:03:55;;;;;;;69.05;44.10;;;;;;;2.46;100.00;99065.15;1772770;79;20987;-66
2022/12/23 22:06:26;;;;;;;64.62;41.13;;;;;;;2.48;100.00;99057.66;1767340;79;21510;-66
2022/12/23 22:08:54;;;;;;;59.23;40.23;;;;;;;2.44;100.00;99061.89;1754900;80;21553;-66
2022/12/23 22:11:27;;;;;;;63.00;42.13;;;;;;;2.40;100.00;99052.66;1752874;79;21031;-66
2022/12/23 22:13:55;;;;;;;68.37;43.48;;;;;;;2.40;100.00;99052.66;1778652;79;21042;-65
2022/12/23 22:16:24;;;;;;;67.95;43.68;;;;;;;2.44;100.00;99049.25;1781359;79;21474;-66
2022/12/23 22:18:50;;;;;;;63.05;42.17;;;;;;;2.44;100.00;99048.46;1784046;80;20971;-65
2022/12/23 22:21:19;;;;;;;69.12;44.33;;;;;;;2.40;100.00;99045.43;1765885;79;21082;-65
2022/12/23 22:23:46;;;;;;;71.95;45.58;;;;;;;2.37;100.00;99041.05;1799522;78;20993;-66
2022/12/23 22:26:14;;;;;;;;;;;;;;;2.31;100.00;99041.45;1767638;79;21026;-66
2022/12/23 22:28:40;;;;;;;75.35;45.75;;;;;;;2.32;100.00;99046.30;1771932;79;20116;-66
2022/12/23 22:31:11;;;;;;;72.95;45.50;;;;;;;2.32;100.00;99042.27;1774348;79;21032;-66
2022/12/23 22:33:37;;;;;;;72.37;46.53;;;;;;;2.34;100.00;99050.90;1770078;79;20991;-66
2022/12/23 22:36:05;;;;;;;67.97;45.65;;;;;;;2.35;100.00;99043.96;1753250;80;21613;-66
2022/12/23 22:38:31;;;;;;;72.45;48.15;;;;;;;2.33;100.00;99051.45;1756611;79;21034;-66
2022/12/23 22:40:57;;;;;;;75.10;47.67;;;;;;;2.28;100.00;99051.84;1781280;79;20979;-66
2022/12/23 22:43:24;;;;;;;67.95;43.92;;;;;;;2.30;100.00;99054.58;1759097;79;21474;-66
2022/12/23 22:45:57;;;;;;;69.35;44.15;;;;;;;2.36;100.00;99050.98;1776745;80;21024;-66
2022/12/23 22:48:27;;;;;;;69.70;43.45;;;;;;;2.41;100.00;99048.38;1749787;81;21558;-65
2022/12/23 22:51:02;;;;;;;68.80;45.50;;;;;;;2.45;100.00;99048.20;1776754;79;21027;-66
2022/12/23 22:53:28;;;;;;;71.12;45.40;;;;;;;2.47;100.00;99054.17;1770397;79;21030;-66
2022/12/23 22:55:58;;;;;;;74.12;44.73;;;;;;;2.49;100.00;99052.06;1781626;79;21005;-66
2022/12/23 22:58:25;;;;;;;68.25;42.30;;;;;;;2.55;100.00;99056.21;1776851;79;20974;-66
2022/12/23 23:00:52;;;;;;;62.17;41.88;;;;;;;2.60;100.00;99051.75;1776962;79;21520;-66
2022/12/23 23:03:18;;;;;;;63.02;41.35;;;;;;;2.62;100.00;99040.78;1771479;79;20955;-66
2022/12/23 23:06:00;;;;;;;68.10;41.77;;;;;;;2.60;100.00;99041.52;1780891;79;21026;-66
2022/12/23 23:08:27;;;;;;;64.35;42.83;;;;;;;2.55;100.00;99046.81;1780679;79;21006;-66
2022/12/23 23:10:56;;;;;;;67.97;43.70;;;;;;;2.48;100.00;99055.79;1768291;79;20999;-66
2022/12/23 23:15:09;;;;;;;67.42;41.90;;;;;;;2.51;100.00;99043.22;1783371;78;22235;-76
2022/12/23 23:17:37;;;;;;;61.60;40.67;;;;;;;2.52;100.00;99048.08;1751725;81;21129;-75
2022/12/23 23:20:04;;;;;;;;;;;;;;;2.54;100.00;99045.16;1751772;81;21412;-76
2022/12/23 23:22:31;;;;;;;65.28;40.75;;;;;;;2.54;100.00;99047.85;1725946;81;20563;-75
2022/12/23 23:24:58;;;;;;;64.87;42.83;;;;;;;2.42;100.00;99050.02;1756164;80;21877;-75
2022/12/23 23:27:24;;;;;;;62.88;41.02;;;;;;;2.39;100.00;99055.05;1746563;81;21576;-75
2022/12/23 23:29:51;;;;;;;64.62;41.77;;;;;;;2.40;100.00;99050.80;1749974;81;21061;-75
2022/12/23 23:32:17;;;;;;;57.50;39.40;;;;;;;2.46;100.00;99051.72;1758611;81;21105;-76
2022/12/23 23:34:44;;;;;;;58.15;39.03;;;;;;;2.48;100.00;99050.41;1727305;81;21041;-75
2022/12/23 23:37:12;;;;;;;55.67;38.70;;;;;;;2.49;100.00;99044.52;1745971;80;20994;-75
2022/12/23 23:39:39;;;;;;;64.30;41.28;;;;;;;2.45;100.00;99040.67;1758922;81;21619;-76
2022/12/23 23:42:05;;;;;;;68.30;41.60;;;;;;;2.40;100.00;99040.05;1757310;80;21018;-77
2022/12/23 23:44:32;;;;;;;63.48;39.45;;;;;;;2.39;100.00;99038.94;1743471;80;21085;-76
2022/12/23 23:46:59;;;;;;;;;;;;;;;2.43;100.00;99038.76;1752230;80;21675;-76
2022/12/23 23:49:25;;;;;;;59.30;38.17;;;;;;;2.42;100.00;99027.72;1770612;80;20152;-77
2022/12/23 23:54:05;;;;;;;58.90;38.50;;;;;;;2.37;100.00;99020.91;1772846;79;22936;-73
2022/12/23 23:56:31;;;;;;;63.10;40.23;;;;;;;2.24;100.00;99031.88;1748774;81;21554;-74
2022/12/23 23:58:58;;;;;;;63.00;39.88;;;;;;;2.18;100.00;99030.97;1662723;85;21038;-73
